createdAt,value
2019-01-20T00:01:17.498Z,97406.34
2019-01-20T00:03:48.085Z,97408.73
2019-01-20T00:06:18.766Z,97407.44
2019-01-20T00:08:49.290Z,97410.28
2019-01-20T00:11:19.730Z,97410.03
2019-01-20T00:13:50.367Z,97406.95
2019-01-20T00:16:20.948Z,97405.50
2019-01-20T00:18:51.569Z,97416.52
2019-01-20T00:21:22.246Z,97404.15
2019-01-20T00:23:52.717Z,97401.61
2019-01-20T00:26:23.299Z,97400.43
2019-01-20T00:28:53.871Z,97393.67
2019-01-20T00:31:24.435Z,97397.70
2019-01-20T00:33:54.880Z,97398.83
2019-01-20T00:36:25.603Z,97400.71
2019-01-20T00:38:56.139Z,97398.57
2019-01-20T00:41:26.672Z,97398.06
2019-01-20T00:43:57.297Z,97400.55
2019-01-20T00:46:27.733Z,97395.33
2019-01-20T00:48:58.234Z,97398.88
2019-01-20T00:51:29.099Z,97393.80
2019-01-20T00:53:59.828Z,97391.62
2019-01-20T00:56:30.426Z,97392.88
2019-01-20T00:59:01.037Z,97392.95
2019-01-20T01:01:31.683Z,97394.25
2019-01-20T01:04:02.255Z,97390.95
2019-01-20T01:06:32.903Z,97393.23
2019-01-20T01:09:03.618Z,97391.91
2019-01-20T01:11:34.323Z,97393.88
2019-01-20T01:14:04.962Z,97392.22
2019-01-20T01:16:35.591Z,97394.43
2019-01-20T01:19:06.195Z,97395.20
2019-01-20T01:21:37.801Z,97399.20
2019-01-20T01:24:08.260Z,97396.58
2019-01-20T01:26:38.868Z,97393.34
2019-01-20T01:29:09.317Z,97396.68
2019-01-20T01:31:39.990Z,97401.86
2019-01-20T01:34:10.566Z,97405.12
2019-01-20T01:36:41.189Z,97404.62
2019-01-20T01:39:11.752Z,97410.75
2019-01-20T01:41:42.277Z,97407.92
2019-01-20T01:44:12.809Z,97410.89
2019-01-20T01:46:43.345Z,97408.67
2019-01-20T01:49:13.903Z,97403.59
2019-01-20T01:51:44.567Z,97404.75
2019-01-20T01:54:15.132Z,97403.53
2019-01-20T01:56:45.656Z,97399.37
2019-01-20T01:59:16.648Z,97400.13
2019-01-20T02:01:47.355Z,97397.56
2019-01-20T02:04:17.844Z,97392.18
2019-01-20T02:06:48.886Z,97401.31
2019-01-20T02:09:19.470Z,97391.30
2019-01-20T02:11:50.186Z,97405.02
2019-01-20T02:14:20.696Z,97397.29
2019-01-20T02:16:51.313Z,97395.28
2019-01-20T02:19:21.959Z,97395.11
2019-01-20T02:21:52.479Z,97389.77
2019-01-20T02:24:22.947Z,97391.88
2019-01-20T02:26:53.543Z,97391.66
2019-01-20T02:29:24.030Z,97392.83
2019-01-20T02:31:54.641Z,97384.21
2019-01-20T02:34:25.230Z,97392.93
2019-01-20T02:36:55.744Z,97394.13
2019-01-20T02:39:26.241Z,97392.83
2019-01-20T02:41:56.881Z,97399.75
2019-01-20T02:44:27.510Z,97395.31
2019-01-20T02:46:58.032Z,97389.48
2019-01-20T02:49:28.639Z,97393.68
2019-01-20T02:51:59.080Z,97399.54
2019-01-20T02:54:29.702Z,97390.95
2019-01-20T02:57:00.223Z,97387.20
2019-01-20T02:59:30.751Z,97387.27
2019-01-20T03:02:01.278Z,97390.92
2019-01-20T03:04:31.797Z,97391.53
2019-01-20T03:07:02.465Z,97392.96
2019-01-20T03:09:33.055Z,97389.77
2019-01-20T03:12:03.883Z,97387.91
2019-01-20T03:14:34.415Z,97392.25
2019-01-20T03:17:04.949Z,97383.62
2019-01-20T03:19:35.496Z,97374.84
2019-01-20T03:22:06.591Z,97378.72
2019-01-20T03:24:37.060Z,97382.74
2019-01-20T03:27:07.765Z,97375.18
2019-01-20T03:29:38.278Z,97373.89
2019-01-20T03:32:08.688Z,97376.78
2019-01-20T03:34:39.085Z,97375.08
2019-01-20T03:37:09.612Z,97367.81
2019-01-20T03:39:40.139Z,97369.92
2019-01-20T03:42:12.078Z,97367.53
2019-01-20T03:44:42.943Z,97371.59
2019-01-20T03:47:13.475Z,97366.44
2019-01-20T03:49:44.032Z,97371.93
2019-01-20T03:52:16.372Z,97370.72
2019-01-20T03:54:46.907Z,97369.53
2019-01-20T03:57:17.438Z,97367.48
2019-01-20T03:59:48.007Z,97366.09
2019-01-20T04:02:20.252Z,97363.05
2019-01-20T04:04:50.771Z,97363.05
2019-01-20T04:07:21.249Z,97367.44
2019-01-20T04:09:51.892Z,97364.05
2019-01-20T04:12:22.469Z,97366.97
2019-01-20T04:14:52.888Z,97358.85
2019-01-20T04:17:23.399Z,97361.80
2019-01-20T04:19:53.813Z,97358.89
2019-01-20T04:22:24.380Z,97360.57
2019-01-20T04:24:54.910Z,97358.35
2019-01-20T04:27:25.350Z,97368.17
2019-01-20T04:29:55.926Z,97359.09
2019-01-20T04:32:26.612Z,97359.65
2019-01-20T04:34:57.102Z,97359.35
2019-01-20T04:37:27.565Z,97356.26
2019-01-20T04:39:58.012Z,97361.77
2019-01-20T04:42:29.246Z,97360.67
2019-01-20T04:44:59.781Z,97364.86
2019-01-20T04:47:30.227Z,97363.41
2019-01-20T04:50:00.708Z,97363.11
2019-01-20T04:52:31.135Z,97367.16
2019-01-20T04:55:01.613Z,97361.36
2019-01-20T04:57:32.247Z,97358.25
2019-01-20T05:00:02.945Z,97362.34
2019-01-20T05:02:33.353Z,97369.16
2019-01-20T05:05:03.730Z,97367.23
2019-01-20T05:07:34.295Z,97363.97
2019-01-20T05:10:05.965Z,97368.85
2019-01-20T05:12:37.844Z,97369.16
2019-01-20T05:15:12.103Z,97369.06
2019-01-20T05:17:42.597Z,97365.66
2019-01-20T05:20:13.318Z,97356.92
2019-01-20T05:22:45.257Z,97366.34
2019-01-20T05:25:15.967Z,97364.08
2019-01-20T05:27:46.624Z,97361.17
2019-01-20T05:30:20.256Z,97364.10
2019-01-20T05:32:50.803Z,97365.09
2019-01-20T05:35:21.508Z,97363.31
2019-01-20T05:37:52.107Z,97371.91
2019-01-20T05:40:23.403Z,97365.11
2019-01-20T05:42:53.936Z,97359.77
2019-01-20T05:45:26.699Z,97362.86
2019-01-20T05:47:57.167Z,97369.02
2019-01-20T05:50:27.655Z,97366.77
2019-01-20T05:52:58.089Z,97364.80
2019-01-20T05:55:28.585Z,97363.84
2019-01-20T05:57:59.046Z,97368.54
2019-01-20T06:00:32.607Z,97369.03
2019-01-20T06:03:03.101Z,97367.06
2019-01-20T06:05:33.729Z,97367.59
2019-01-20T06:08:04.218Z,97373.06
2019-01-20T06:10:34.797Z,97378.60
2019-01-20T06:13:05.474Z,97377.45
2019-01-20T06:15:36.001Z,97375.03
2019-01-20T06:18:06.685Z,97371.47
2019-01-20T06:20:37.243Z,97378.45
2019-01-20T06:23:07.795Z,97381.53
2019-01-20T06:25:38.222Z,97385.75
2019-01-20T06:28:08.747Z,97388.48
2019-01-20T06:30:40.337Z,97387.80
2019-01-20T06:33:10.784Z,97389.28
2019-01-20T06:35:41.469Z,97391.87
2019-01-20T06:38:12.040Z,97393.80
2019-01-20T06:41:01.547Z,97388.11
2019-01-20T06:43:43.923Z,97390.21
2019-01-20T06:46:14.557Z,97372.41
2019-01-20T06:48:45.063Z,97392.27
2019-01-20T06:51:15.680Z,97386.13
2019-01-20T06:53:46.142Z,97388.88
2019-01-20T06:56:17.625Z,97394.39
2019-01-20T06:58:48.186Z,97403.58
2019-01-20T07:01:18.711Z,97407.81
2019-01-20T07:03:49.274Z,97408.73
2019-01-20T07:06:19.660Z,97408.06
2019-01-20T07:08:50.300Z,97415.37
2019-01-20T07:11:20.840Z,97421.20
2019-01-20T07:13:51.263Z,97418.78
2019-01-20T07:16:21.778Z,97424.67
2019-01-20T07:18:52.378Z,97429.55
2019-01-20T07:21:22.888Z,97430.23
2019-01-20T07:23:53.484Z,97438.03
2019-01-20T07:26:24.020Z,97438.34
2019-01-20T07:28:54.424Z,97437.72
2019-01-20T07:31:24.975Z,97439.67
2019-01-20T07:33:55.363Z,97445.56
2019-01-20T07:36:25.992Z,97444.13
2019-01-20T07:38:56.548Z,97446.19
2019-01-20T07:41:27.906Z,97441.86
2019-01-20T07:43:58.234Z,97445.16
2019-01-20T07:46:28.751Z,97444.52
2019-01-20T07:48:59.095Z,97448.88
2019-01-20T07:51:29.559Z,97453.11
2019-01-20T07:54:00.035Z,97448.72
2019-01-20T07:56:30.476Z,97453.28
2019-01-20T07:59:00.815Z,97466.73
2019-01-20T08:01:31.178Z,97458.95
2019-01-20T08:04:01.603Z,97466.55
2019-01-20T08:06:32.029Z,97458.97
2019-01-20T08:09:02.533Z,97460.63
2019-01-20T08:11:32.883Z,97472.83
2019-01-20T08:14:03.201Z,97469.56
2019-01-20T08:16:33.636Z,97480.92
2019-01-20T08:19:04.081Z,97484.36
2019-01-20T08:21:34.404Z,97489.88
2019-01-20T08:24:04.854Z,97486.18
2019-01-20T08:26:35.149Z,97487.77
2019-01-20T08:29:06.609Z,97492.98
2019-01-20T08:31:38.963Z,97500.98
2019-01-20T08:34:09.202Z,97503.09
2019-01-20T08:36:39.475Z,97507.48
2019-01-20T08:39:10.950Z,97506.17
2019-01-20T08:41:41.393Z,97512.02
2019-01-20T08:44:14.792Z,97515.09
2019-01-20T08:47:31.768Z,97505.22
2019-01-20T08:50:02.081Z,97504.20
2019-01-20T08:52:32.311Z,97503.58
2019-01-20T08:55:02.873Z,97511.22
2019-01-20T08:57:33.311Z,97505.81
2019-01-20T09:00:03.815Z,97504.66
2019-01-20T09:02:34.672Z,97507.40
2019-01-20T09:05:05.652Z,97515.69
2019-01-20T09:07:36.171Z,97516.64
2019-01-20T09:10:14.912Z,97522.14
2019-01-20T09:12:45.539Z,97521.16
2019-01-20T09:15:16.120Z,97526.34
2019-01-20T09:17:46.607Z,97526.50
2019-01-20T09:20:18.246Z,97531.79
2019-01-20T09:22:48.699Z,97537.62
2019-01-20T09:25:19.303Z,97542.14
2019-01-20T09:27:49.662Z,97540.73
2019-01-20T09:30:21.804Z,97534.34
2019-01-20T09:32:52.230Z,97545.23
2019-01-20T09:35:22.847Z,97546.92
2019-01-20T09:37:53.923Z,97549.95
2019-01-20T09:40:24.366Z,97555.97
2019-01-20T09:42:54.691Z,97554.21
2019-01-20T09:45:29.790Z,97555.81
2019-01-20T09:48:00.861Z,97554.05
2019-01-20T09:50:31.263Z,97541.80
2019-01-20T09:53:01.767Z,97553.48
2019-01-20T09:55:32.182Z,97559.06
2019-01-20T09:58:02.934Z,97560.78
2019-01-20T10:00:34.189Z,97560.22
2019-01-20T10:03:04.684Z,97566.45
2019-01-20T10:05:35.453Z,97565.17
2019-01-20T10:08:06.357Z,97564.31
2019-01-20T10:10:36.928Z,97565.92
2019-01-20T10:13:07.403Z,97567.37
2019-01-20T10:15:37.947Z,97566.12
2019-01-20T10:18:08.754Z,97576.41
2019-01-20T10:20:39.334Z,97575.44
2019-01-20T10:23:09.951Z,97575.26
2019-01-20T10:25:40.547Z,97581.69
2019-01-20T10:28:14.662Z,97579.89
2019-01-20T10:30:45.195Z,97579.40
2019-01-20T10:33:15.639Z,97585.69
2019-01-20T10:35:51.326Z,97583.69
2019-01-20T10:38:21.845Z,97583.05
2019-01-20T10:40:52.332Z,97578.27
2019-01-20T10:43:22.789Z,97579.52
2019-01-20T10:45:53.296Z,97577.31
2019-01-20T10:48:23.856Z,97581.99
2019-01-20T10:50:54.302Z,97578.84
2019-01-20T10:53:24.884Z,97582.00
2019-01-20T10:55:55.281Z,97585.39
2019-01-20T10:58:25.794Z,97583.30
2019-01-20T11:00:56.190Z,97584.36
2019-01-20T11:03:27.688Z,97586.02
2019-01-20T11:05:58.073Z,97587.26
2019-01-20T11:08:28.354Z,97579.38
2019-01-20T11:10:58.742Z,97583.48
2019-01-20T11:13:33.332Z,97590.89
2019-01-20T11:16:03.758Z,97589.71
2019-01-20T11:18:34.669Z,97589.55
2019-01-20T11:21:05.301Z,97592.14
2019-01-20T11:23:36.063Z,97587.22
2019-01-20T11:26:06.808Z,97591.47
2019-01-20T11:28:37.315Z,97590.23
2019-01-20T11:31:07.713Z,97592.77
2019-01-20T11:33:38.158Z,97593.98
2019-01-20T11:36:08.565Z,97584.44
2019-01-20T11:38:39.098Z,97583.78
2019-01-20T11:41:09.789Z,97589.95
2019-01-20T11:43:40.130Z,97588.52
2019-01-20T11:46:10.664Z,97586.52
2019-01-20T11:48:41.060Z,97585.78
2019-01-20T11:51:11.559Z,97582.56
2019-01-20T11:53:42.091Z,97585.63
2019-01-20T11:56:12.683Z,97574.64
2019-01-20T11:58:43.058Z,97574.11
2019-01-20T12:01:13.401Z,97569.91
2019-01-20T12:03:43.948Z,97569.27
2019-01-20T12:06:14.434Z,97575.75
2019-01-20T12:08:45.043Z,97582.07
2019-01-20T12:11:15.636Z,97576.18
2019-01-20T12:13:46.322Z,97573.52
2019-01-20T12:16:16.762Z,97568.82
2019-01-20T12:18:47.231Z,97575.28
2019-01-20T12:21:17.755Z,97575.33
2019-01-20T12:23:47.989Z,97575.63
2019-01-20T12:26:18.297Z,97570.14
2019-01-20T12:28:49.700Z,97567.90
2019-01-20T12:31:23.593Z,97569.22
2019-01-20T12:33:54.098Z,97574.67
2019-01-20T12:36:24.533Z,97571.02
2019-01-20T12:38:54.983Z,97575.16
2019-01-20T12:41:25.455Z,97577.77
2019-01-20T12:43:55.900Z,97571.61
2019-01-20T12:46:26.448Z,97573.83
2019-01-20T12:48:56.962Z,97567.90
2019-01-20T12:51:28.623Z,97573.30
2019-01-20T12:53:59.222Z,97578.53
2019-01-20T12:56:29.738Z,97576.34
2019-01-20T12:59:00.128Z,97580.44
2019-01-20T13:01:30.631Z,97577.43
2019-01-20T13:04:01.110Z,97574.72
2019-01-20T13:06:31.588Z,97571.34
2019-01-20T13:09:01.975Z,97576.13
2019-01-20T13:11:32.445Z,97573.69
2019-01-20T13:14:02.910Z,97578.65
2019-01-20T13:16:33.337Z,97574.45
2019-01-20T13:19:03.675Z,97567.38
2019-01-20T13:21:34.163Z,97568.67
2019-01-20T13:24:04.839Z,97577.34
2019-01-20T13:26:35.355Z,97571.77
2019-01-20T13:29:06.938Z,97571.30
2019-01-20T13:31:37.358Z,97576.75
2019-01-20T13:34:08.939Z,97575.91
2019-01-20T13:36:39.429Z,97570.67
2019-01-20T13:39:13.856Z,97574.12
2019-01-20T13:41:44.327Z,97573.64
2019-01-20T13:44:15.809Z,97568.84
2019-01-20T13:46:46.213Z,97577.33
2019-01-20T13:49:17.536Z,97585.25
2019-01-20T13:51:47.932Z,97572.25
2019-01-20T13:54:21.844Z,97579.58
2019-01-20T13:56:52.267Z,97578.00
2019-01-20T13:59:22.668Z,97572.11
2019-01-20T14:01:53.009Z,97575.33
2019-01-20T14:04:23.490Z,97579.19
2019-01-20T14:06:54.309Z,97583.55
2019-01-20T14:09:24.709Z,97573.95
2019-01-20T14:11:55.214Z,97577.28
2019-01-20T14:14:25.633Z,97582.39
2019-01-20T14:16:55.879Z,97592.65
2019-01-20T14:19:26.308Z,97585.56
2019-01-20T14:21:57.043Z,97591.52
2019-01-20T14:24:27.543Z,97590.75
2019-01-20T14:26:58.035Z,97592.43
2019-01-20T14:29:28.581Z,97596.80
2019-01-20T14:31:59.123Z,97599.07
2019-01-20T14:34:29.748Z,97595.86
2019-01-20T14:37:00.209Z,97599.45
2019-01-20T14:39:30.719Z,97605.74
2019-01-20T14:42:01.091Z,97607.73
2019-01-20T14:44:31.620Z,97607.16
2019-01-20T14:47:02.112Z,97608.64
2019-01-20T14:49:32.541Z,97612.16
2019-01-20T14:52:03.115Z,97612.93
2019-01-20T14:54:34.718Z,97613.83
2019-01-20T14:57:05.236Z,97619.72
2019-01-20T14:59:35.753Z,97620.62
2019-01-20T15:02:06.830Z,97621.56
2019-01-20T15:04:37.366Z,97622.78
2019-01-20T15:07:07.921Z,97619.39
2019-01-20T15:09:38.547Z,97622.62
2019-01-20T15:12:09.119Z,97626.50
2019-01-20T15:14:40.665Z,97629.16
2019-01-20T15:17:12.073Z,97629.36
2019-01-20T15:19:43.621Z,97648.80
2019-01-20T15:22:13.999Z,97637.32
2019-01-20T15:24:44.474Z,97635.11
2019-01-20T15:27:15.002Z,97640.63
2019-01-20T15:29:45.408Z,97647.55
2019-01-20T15:32:16.857Z,97642.12
2019-01-20T15:34:47.382Z,97649.91
2019-01-20T15:37:17.904Z,97649.42
2019-01-20T15:39:48.464Z,97652.13
2019-01-20T15:42:19.312Z,97651.41
2019-01-20T15:44:50.916Z,97653.92
2019-01-20T15:47:21.426Z,97655.75
2019-01-20T15:49:51.959Z,97661.98
2019-01-20T15:52:22.330Z,97664.76
2019-01-20T15:54:52.836Z,97663.09
2019-01-20T15:57:23.542Z,97655.30
2019-01-20T15:59:54.145Z,97671.78
2019-01-20T16:02:24.678Z,97671.09
2019-01-20T16:04:55.172Z,97666.94
2019-01-20T16:07:25.669Z,97671.51
2019-01-20T16:09:56.076Z,97677.41
2019-01-20T16:12:26.520Z,97678.58
2019-01-20T16:14:56.965Z,97682.17
2019-01-20T16:17:27.378Z,97683.09
2019-01-20T16:19:58.062Z,97685.65
2019-01-20T16:22:28.473Z,97689.44
2019-01-20T16:24:58.908Z,97693.02
2019-01-20T16:27:29.387Z,97692.42
2019-01-20T16:30:00.264Z,97694.48
2019-01-20T16:32:31.434Z,97696.03
2019-01-20T16:35:01.969Z,97721.52
2019-01-20T16:37:32.385Z,97702.42
2019-01-20T16:40:02.783Z,97707.00
2019-01-20T16:42:33.209Z,97709.06
2019-01-20T16:45:03.702Z,97713.22
2019-01-20T16:47:35.109Z,97711.41
2019-01-20T16:50:06.816Z,97717.73
2019-01-20T16:52:37.459Z,97714.99
2019-01-20T16:55:08.262Z,97719.66
2019-01-20T16:57:38.683Z,97722.82
2019-01-20T17:00:17.973Z,97726.73
2019-01-20T17:02:48.565Z,97727.64
2019-01-20T17:05:19.092Z,97727.86
2019-01-20T17:07:52.927Z,97725.13
2019-01-20T17:10:27.027Z,97721.87
2019-01-20T17:12:57.729Z,97729.10
2019-01-20T17:15:39.415Z,97726.29
2019-01-20T17:18:07.357Z,97726.08
2019-01-20T17:20:38.618Z,97735.39
2019-01-20T17:23:09.101Z,97726.10
2019-01-20T17:25:39.571Z,97736.85
2019-01-20T17:28:09.996Z,97743.92
2019-01-20T17:30:41.079Z,97741.08
2019-01-20T17:33:12.989Z,97742.09
2019-01-20T17:35:43.440Z,97745.42
2019-01-20T17:38:13.867Z,97750.45
2019-01-20T17:40:44.274Z,97744.94
2019-01-20T17:43:15.676Z,97749.36
2019-01-20T17:45:48.553Z,97753.56
2019-01-20T17:48:18.682Z,97753.39
2019-01-20T17:50:49.284Z,97754.72
2019-01-20T17:53:19.748Z,97759.27
2019-01-20T17:55:50.216Z,97760.23
2019-01-20T17:58:20.703Z,97761.69
2019-01-20T18:00:55.032Z,97762.34
2019-01-20T18:03:25.597Z,97765.23
2019-01-20T18:05:56.035Z,97767.22
2019-01-20T18:08:26.606Z,97768.58
2019-01-20T18:10:57.159Z,97769.50
2019-01-20T18:13:27.691Z,97772.75
2019-01-20T18:15:58.101Z,97778.62
2019-01-20T18:18:28.748Z,97783.52
2019-01-20T18:20:59.067Z,97778.64
2019-01-20T18:23:29.524Z,97784.80
2019-01-20T18:26:00.010Z,97784.05
2019-01-20T18:28:30.547Z,97786.80
2019-01-20T18:31:01.084Z,97791.34
2019-01-20T18:33:31.641Z,97793.16
2019-01-20T18:36:02.139Z,97796.41
2019-01-20T18:38:33.305Z,97793.70
2019-01-20T18:41:03.723Z,97799.57
2019-01-20T18:43:38.617Z,97799.98
2019-01-20T18:46:11.470Z,97801.77
2019-01-20T18:48:41.999Z,97803.59
2019-01-20T18:51:12.406Z,97806.71
2019-01-20T18:53:42.935Z,97803.39
2019-01-20T18:56:13.358Z,97807.78
2019-01-20T18:58:44.023Z,97801.77
2019-01-20T19:01:15.752Z,97802.31
2019-01-20T19:03:46.480Z,97802.57
2019-01-20T19:06:16.939Z,97801.95
2019-01-20T19:08:47.690Z,97804.70
2019-01-20T19:11:18.309Z,97809.31
2019-01-20T19:13:49.110Z,97810.61
2019-01-20T19:16:24.482Z,97806.34
2019-01-20T19:18:54.965Z,97812.55
2019-01-20T19:21:35.466Z,97818.97
2019-01-20T19:24:06.335Z,97821.23
2019-01-20T19:26:36.709Z,97820.74
2019-01-20T19:29:07.351Z,97820.74
2019-01-20T19:31:37.762Z,97822.58
2019-01-20T19:34:08.331Z,97825.52
2019-01-20T19:36:38.797Z,97833.16
2019-01-20T19:39:11.885Z,97834.48
2019-01-20T19:41:42.216Z,97836.11
2019-01-20T19:44:12.842Z,97840.70
2019-01-20T19:46:43.412Z,97837.77
2019-01-20T19:49:13.942Z,97836.41
2019-01-20T19:51:44.487Z,97838.12
2019-01-20T19:54:14.942Z,97847.53
2019-01-20T19:56:45.417Z,97845.42
2019-01-20T19:59:17.791Z,97844.47
2019-01-20T20:01:48.155Z,97840.56
2019-01-20T20:04:19.758Z,97851.66
2019-01-20T20:06:50.153Z,97845.31
2019-01-20T20:09:20.891Z,97850.50
2019-01-20T20:11:51.314Z,97854.56
2019-01-20T20:14:21.757Z,97856.41
2019-01-20T20:16:52.297Z,97858.84
2019-01-20T20:19:22.748Z,97861.92
2019-01-20T20:21:53.148Z,97864.05
2019-01-20T20:24:25.574Z,97865.01
2019-01-20T20:26:55.690Z,97864.52
2019-01-20T20:29:26.306Z,97870.24
2019-01-20T20:31:56.806Z,97854.60
2019-01-20T20:34:27.467Z,97872.06
2019-01-20T20:36:57.910Z,97875.47
2019-01-20T20:39:28.413Z,97875.80
2019-01-20T20:42:02.300Z,97877.28
2019-01-20T20:44:32.969Z,97882.17
2019-01-20T20:47:03.361Z,97883.47
2019-01-20T20:49:33.789Z,97889.16
2019-01-20T20:52:04.425Z,97885.73
2019-01-20T20:54:35.840Z,97889.02
2019-01-20T20:57:07.164Z,97894.41
2019-01-20T20:59:37.685Z,97889.52
2019-01-20T21:02:08.354Z,97890.83
2019-01-20T21:04:38.892Z,97902.06
2019-01-20T21:07:09.559Z,97899.45
2019-01-20T21:09:40.103Z,97897.33
2019-01-20T21:12:10.735Z,97901.25
2019-01-20T21:14:41.327Z,97904.01
2019-01-20T21:17:11.793Z,97903.20
2019-01-20T21:19:42.376Z,97909.08
2019-01-20T21:22:12.841Z,97906.13
2019-01-20T21:24:43.301Z,97909.72
2019-01-20T21:27:13.799Z,97912.99
2019-01-20T21:29:44.116Z,97900.75
2019-01-20T21:32:14.608Z,97913.47
2019-01-20T21:34:45.098Z,97916.90
2019-01-20T21:37:15.745Z,97916.42
2019-01-20T21:39:46.131Z,97918.52
2019-01-20T21:42:16.646Z,97920.98
2019-01-20T21:44:47.041Z,97920.33
2019-01-20T21:47:17.436Z,97921.30
2019-01-20T21:49:47.936Z,97930.25
2019-01-20T21:52:18.456Z,97927.83
2019-01-20T21:54:48.775Z,97931.74
2019-01-20T21:57:19.312Z,97936.48
2019-01-20T21:59:49.957Z,97937.30
2019-01-20T22:02:20.590Z,97936.63
2019-01-20T22:04:51.349Z,97938.26
2019-01-20T22:07:21.822Z,97945.42
2019-01-20T22:09:52.279Z,97946.91
2019-01-20T22:12:22.806Z,97944.11
2019-01-20T22:14:53.270Z,97950.34
2019-01-20T22:17:23.758Z,97948.22
2019-01-20T22:19:54.249Z,97950.83
2019-01-20T22:22:24.757Z,97956.53
2019-01-20T22:24:56.322Z,97957.83
2019-01-20T22:27:26.697Z,97954.73
2019-01-20T22:29:57.227Z,97932.05
2019-01-20T22:32:27.750Z,97957.83
2019-01-20T22:34:58.312Z,97962.56
2019-01-20T22:37:28.809Z,97959.13
2019-01-20T22:39:59.191Z,97962.56
2019-01-20T22:42:29.577Z,97966.78
2019-01-20T22:45:00.184Z,97963.19
2019-01-20T22:47:30.519Z,97965.95
2019-01-20T22:50:01.034Z,97970.55
2019-01-20T22:52:31.431Z,97967.94
2019-01-20T22:55:01.904Z,97971.69
2019-01-20T22:57:32.294Z,97970.88
2019-01-20T23:00:02.682Z,97974.93
2019-01-20T23:02:33.382Z,97974.45
2019-01-20T23:05:03.810Z,97975.09
2019-01-20T23:07:34.899Z,97974.78
2019-01-20T23:10:06.512Z,97974.30
2019-01-20T23:12:37.127Z,97980.96
2019-01-20T23:15:08.990Z,97979.17
2019-01-20T23:17:39.363Z,97984.20
2019-01-20T23:20:14.639Z,97976.72
2019-01-20T23:22:45.361Z,97985.22
2019-01-20T23:25:18.658Z,97980.14
2019-01-20T23:27:51.648Z,97982.11
2019-01-20T23:30:22.483Z,97978.51
2019-01-20T23:32:52.980Z,97981.94
2019-01-20T23:35:23.446Z,97977.38
2019-01-20T23:37:53.894Z,97979.31
2019-01-20T23:40:24.413Z,97980.95
2019-01-20T23:42:54.885Z,97980.60
2019-01-20T23:45:25.340Z,97984.33
2019-01-20T23:47:55.840Z,97985.44
2019-01-20T23:50:26.332Z,97989.84
2019-01-20T23:52:56.744Z,97986.57
2019-01-20T23:55:27.193Z,97982.48
2019-01-20T23:57:57.616Z,97984.09
